sensor_id;sensor_type;location;lat;lon;timestamp;P1;durP1;ratioP1;P2;durP2;ratioP2
27977;SDS011;15314;49.248;6.968;2023-07-30T00:00:51;8.88;;;8.18;;
27977;SDS011;15314;49.248;6.968;2023-07-30T00:01:52;8.85;;;8.25;;
27977;SDS011;15314;49.248;6.968;2023-07-30T00:02:52;8.43;;;7.82;;
27977;SDS011;15314;49.248;6.968;2023-07-30T00:03:53;9.20;;;8.48;;
27977;SDS011;15314;49.248;6.968;2023-07-30T00:04:53;8.02;;;7.53;;
27977;SDS011;15314;49.248;6.968;2023-07-30T00:05:54;8.70;;;8.20;;
27977;SDS011;15314;49.248;6.968;2023-07-30T00:06:55;8.90;;;8.27;;
27977;SDS011;15314;49.248;6.968;2023-07-30T00:07:56;8.75;;;8.10;;
27977;SDS011;15314;49.248;6.968;2023-07-30T00:08:57;9.38;;;8.55;;
27977;SDS011;15314;49.248;6.968;2023-07-30T00:09:57;8.75;;;8.10;;
27977;SDS011;15314;49.248;6.968;2023-07-30T00:10:58;8.93;;;8.32;;
27977;SDS011;15314;49.248;6.968;2023-07-30T00:11:59;10.02;;;8.77;;
27977;SDS011;15314;49.248;6.968;2023-07-30T00:12:59;9.52;;;8.82;;
27977;SDS011;15314;49.248;6.968;2023-07-30T00:14:00;9.25;;;8.45;;
27977;SDS011;15314;49.248;6.968;2023-07-30T00:15:01;9.00;;;8.40;;
27977;SDS011;15314;49.248;6.968;2023-07-30T00:16:01;9.07;;;8.27;;
27977;SDS011;15314;49.248;6.968;2023-07-30T00:17:02;8.63;;;8.05;;
27977;SDS011;15314;49.248;6.968;2023-07-30T00:18:03;9.18;;;8.65;;
27977;SDS011;15314;49.248;6.968;2023-07-30T00:19:03;9.18;;;8.57;;
27977;SDS011;15314;49.248;6.968;2023-07-30T00:20:05;9.35;;;8.65;;
27977;SDS011;15314;49.248;6.968;2023-07-30T00:21:07;9.43;;;8.80;;
27977;SDS011;15314;49.248;6.968;2023-07-30T00:22:08;9.50;;;8.80;;
27977;SDS011;15314;49.248;6.968;2023-07-30T00:23:09;10.20;;;9.23;;
27977;SDS011;15314;49.248;6.968;2023-07-30T00:24:09;9.75;;;9.05;;
27977;SDS011;15314;49.248;6.968;2023-07-30T00:25:10;9.68;;;9.07;;
27977;SDS011;15314;49.248;6.968;2023-07-30T00:26:10;9.18;;;8.57;;
27977;SDS011;15314;49.248;6.968;2023-07-30T00:27:11;9.13;;;8.38;;
27977;SDS011;15314;49.248;6.968;2023-07-30T00:28:12;9.68;;;8.93;;
27977;SDS011;15314;49.248;6.968;2023-07-30T00:29:12;9.77;;;8.88;;
27977;SDS011;15314;49.248;6.968;2023-07-30T00:30:13;10.07;;;9.20;;
27977;SDS011;15314;49.248;6.968;2023-07-30T00:31:14;8.75;;;8.25;;
27977;SDS011;15314;49.248;6.968;2023-07-30T00:32:14;8.82;;;8.43;;
27977;SDS011;15314;49.248;6.968;2023-07-30T00:33:16;10.00;;;9.20;;
27977;SDS011;15314;49.248;6.968;2023-07-30T00:34:17;10.10;;;9.30;;
27977;SDS011;15314;49.248;6.968;2023-07-30T00:35:18;9.45;;;8.73;;
27977;SDS011;15314;49.248;6.968;2023-07-30T00:36:18;10.23;;;9.52;;
27977;SDS011;15314;49.248;6.968;2023-07-30T00:37:19;8.90;;;8.10;;
27977;SDS011;15314;49.248;6.968;2023-07-30T00:38:20;9.85;;;9.20;;
27977;SDS011;15314;49.248;6.968;2023-07-30T00:39:20;9.70;;;9.10;;
27977;SDS011;15314;49.248;6.968;2023-07-30T00:40:21;9.25;;;8.57;;
27977;SDS011;15314;49.248;6.968;2023-07-30T00:41:22;8.90;;;8.18;;
27977;SDS011;15314;49.248;6.968;2023-07-30T00:42:22;8.75;;;8.07;;
27977;SDS011;15314;49.248;6.968;2023-07-30T00:43:23;9.60;;;9.00;;
27977;SDS011;15314;49.248;6.968;2023-07-30T00:44:24;9.70;;;8.90;;
27977;SDS011;15314;49.248;6.968;2023-07-30T00:45:25;9.27;;;8.63;;
27977;SDS011;15314;49.248;6.968;2023-07-30T00:46:25;9.70;;;9.05;;
27977;SDS011;15314;49.248;6.968;2023-07-30T00:47:26;9.13;;;8.38;;
27977;SDS011;15314;49.248;6.968;2023-07-30T00:48:27;9.55;;;8.95;;
27977;SDS011;15314;49.248;6.968;2023-07-30T00:49:28;8.55;;;8.05;;
27977;SDS011;15314;49.248;6.968;2023-07-30T00:50:28;9.52;;;8.57;;
27977;SDS011;15314;49.248;6.968;2023-07-30T00:51:31;8.73;;;8.02;;
27977;SDS011;15314;49.248;6.968;2023-07-30T00:52:33;9.63;;;8.93;;
27977;SDS011;15314;49.248;6.968;2023-07-30T00:53:35;9.10;;;8.60;;
27977;SDS011;15314;49.248;6.968;2023-07-30T00:54:37;13.63;;;10.02;;
27977;SDS011;15314;49.248;6.968;2023-07-30T00:55:39;10.02;;;9.13;;
27977;SDS011;15314;49.248;6.968;2023-07-30T00:56:41;10.10;;;9.23;;
27977;SDS011;15314;49.248;6.968;2023-07-30T00:57:52;8.45;;;7.95;;
27977;SDS011;15314;49.248;6.968;2023-07-30T00:58:52;9.88;;;9.07;;
27977;SDS011;15314;49.248;6.968;2023-07-30T00:59:54;9.38;;;8.90;;
27977;SDS011;15314;49.248;6.968;2023-07-30T01:00:57;8.88;;;8.38;;
27977;SDS011;15314;49.248;6.968;2023-07-30T01:01:57;9.98;;;9.18;;
27977;SDS011;15314;49.248;6.968;2023-07-30T01:02:59;9.80;;;9.02;;
27977;SDS011;15314;49.248;6.968;2023-07-30T01:04:01;11.35;;;10.30;;
27977;SDS011;15314;49.248;6.968;2023-07-30T01:05:02;10.20;;;9.43;;
27977;SDS011;15314;49.248;6.968;2023-07-30T01:06:06;9.57;;;8.93;;
27977;SDS011;15314;49.248;6.968;2023-07-30T01:07:07;9.40;;;8.90;;
27977;SDS011;15314;49.248;6.968;2023-07-30T01:08:07;9.80;;;9.00;;
27977;SDS011;15314;49.248;6.968;2023-07-30T01:09:08;9.35;;;8.68;;
27977;SDS011;15314;49.248;6.968;2023-07-30T01:10:10;9.60;;;8.90;;
27977;SDS011;15314;49.248;6.968;2023-07-30T01:11:10;10.20;;;9.40;;
27977;SDS011;15314;49.248;6.968;2023-07-30T01:12:12;9.70;;;9.00;;
27977;SDS011;15314;49.248;6.968;2023-07-30T01:13:14;9.35;;;8.65;;
27977;SDS011;15314;49.248;6.968;2023-07-30T01:14:16;10.18;;;9.25;;
27977;SDS011;15314;49.248;6.968;2023-07-30T01:15:19;9.77;;;9.18;;
27977;SDS011;15314;49.248;6.968;2023-07-30T01:16:19;9.85;;;9.20;;
27977;SDS011;15314;49.248;6.968;2023-07-30T01:17:21;9.73;;;8.90;;
27977;SDS011;15314;49.248;6.968;2023-07-30T01:18:22;9.52;;;8.93;;
27977;SDS011;15314;49.248;6.968;2023-07-30T01:19:23;9.88;;;9.10;;
27977;SDS011;15314;49.248;6.968;2023-07-30T01:20:23;10.25;;;9.55;;
27977;SDS011;15314;49.248;6.968;2023-07-30T01:21:24;11.98;;;10.93;;
27977;SDS011;15314;49.248;6.968;2023-07-30T01:22:25;9.45;;;8.65;;
27977;SDS011;15314;49.248;6.968;2023-07-30T01:23:25;9.80;;;8.85;;
27977;SDS011;15314;49.248;6.968;2023-07-30T01:24:26;9.55;;;8.75;;
27977;SDS011;15314;49.248;6.968;2023-07-30T01:25:28;9.50;;;8.75;;
27977;SDS011;15314;49.248;6.968;2023-07-30T01:26:43;9.75;;;9.15;;
27977;SDS011;15314;49.248;6.968;2023-07-30T01:27:47;9.60;;;8.95;;
27977;SDS011;15314;49.248;6.968;2023-07-30T01:28:53;10.38;;;9.48;;
27977;SDS011;15314;49.248;6.968;2023-07-30T01:30:06;9.35;;;8.77;;
27977;SDS011;15314;49.248;6.968;2023-07-30T01:31:15;9.25;;;8.60;;
27977;SDS011;15314;49.248;6.968;2023-07-30T01:32:18;10.90;;;10.05;;
27977;SDS011;15314;49.248;6.968;2023-07-30T01:33:24;10.60;;;9.80;;
27977;SDS011;15314;49.248;6.968;2023-07-30T01:34:26;10.35;;;9.65;;
27977;SDS011;15314;49.248;6.968;2023-07-30T01:35:29;10.00;;;9.40;;
27977;SDS011;15314;49.248;6.968;2023-07-30T01:36:30;10.80;;;9.80;;
27977;SDS011;15314;49.248;6.968;2023-07-30T01:37:33;9.82;;;9.23;;
27977;SDS011;15314;49.248;6.968;2023-07-30T01:38:34;9.93;;;9.32;;
27977;SDS011;15314;49.248;6.968;2023-07-30T01:39:35;9.48;;;8.98;;
27977;SDS011;15314;49.248;6.968;2023-07-30T01:40:38;9.43;;;8.88;;
27977;SDS011;15314;49.248;6.968;2023-07-30T01:41:39;10.10;;;9.40;;
27977;SDS011;15314;49.248;6.968;2023-07-30T01:42:40;10.25;;;9.65;;
27977;SDS011;15314;49.248;6.968;2023-07-30T01:43:40;10.05;;;9.55;;
27977;SDS011;15314;49.248;6.968;2023-07-30T01:44:41;9.65;;;9.05;;
27977;SDS011;15314;49.248;6.968;2023-07-30T01:45:42;10.10;;;9.18;;
27977;SDS011;15314;49.248;6.968;2023-07-30T01:46:42;9.70;;;9.10;;
27977;SDS011;15314;49.248;6.968;2023-07-30T01:47:43;9.73;;;9.13;;
27977;SDS011;15314;49.248;6.968;2023-07-30T01:48:44;10.18;;;9.35;;
27977;SDS011;15314;49.248;6.968;2023-07-30T01:49:44;9.60;;;9.00;;
27977;SDS011;15314;49.248;6.968;2023-07-30T01:50:45;10.85;;;9.98;;
27977;SDS011;15314;49.248;6.968;2023-07-30T01:51:48;10.15;;;9.52;;
27977;SDS011;15314;49.248;6.968;2023-07-30T01:52:49;9.60;;;9.10;;
27977;SDS011;15314;49.248;6.968;2023-07-30T01:53:50;9.93;;;9.23;;
27977;SDS011;15314;49.248;6.968;2023-07-30T01:54:51;10.60;;;9.85;;
27977;SDS011;15314;49.248;6.968;2023-07-30T01:55:51;11.90;;;11.05;;
27977;SDS011;15314;49.248;6.968;2023-07-30T01:56:52;10.48;;;9.88;;
27977;SDS011;15314;49.248;6.968;2023-07-30T01:57:53;9.02;;;8.45;;
27977;SDS011;15314;49.248;6.968;2023-07-30T01:58:54;10.18;;;9.38;;
27977;SDS011;15314;49.248;6.968;2023-07-30T01:59:55;9.93;;;9.43;;
27977;SDS011;15314;49.248;6.968;2023-07-30T02:00:55;10.02;;;9.52;;
27977;SDS011;15314;49.248;6.968;2023-07-30T02:01:56;10.20;;;9.57;;
27977;SDS011;15314;49.248;6.968;2023-07-30T02:02:57;10.63;;;9.82;;
27977;SDS011;15314;49.248;6.968;2023-07-30T02:03:57;10.45;;;9.70;;
27977;SDS011;15314;49.248;6.968;2023-07-30T02:04:58;10.75;;;9.90;;
27977;SDS011;15314;49.248;6.968;2023-07-30T02:05:58;10.15;;;9.52;;
27977;SDS011;15314;49.248;6.968;2023-07-30T02:06:59;10.38;;;9.55;;
27977;SDS011;15314;49.248;6.968;2023-07-30T02:08:00;10.20;;;9.40;;
27977;SDS011;15314;49.248;6.968;2023-07-30T02:09:00;9.73;;;9.20;;
27977;SDS011;15314;49.248;6.968;2023-07-30T02:10:02;9.75;;;9.10;;
27977;SDS011;15314;49.248;6.968;2023-07-30T02:11:02;9.55;;;8.70;;
27977;SDS011;15314;49.248;6.968;2023-07-30T02:12:03;9.43;;;8.88;;
27977;SDS011;15314;49.248;6.968;2023-07-30T02:13:04;9.90;;;9.10;;
27977;SDS011;15314;49.248;6.968;2023-07-30T02:14:05;9.18;;;8.48;;
27977;SDS011;15314;49.248;6.968;2023-07-30T02:15:05;10.20;;;9.50;;
27977;SDS011;15314;49.248;6.968;2023-07-30T02:16:06;9.85;;;9.05;;
27977;SDS011;15314;49.248;6.968;2023-07-30T02:17:07;9.10;;;8.68;;
27977;SDS011;15314;49.248;6.968;2023-07-30T02:18:08;9.63;;;8.77;;
27977;SDS011;15314;49.248;6.968;2023-07-30T02:19:10;9.65;;;8.95;;
27977;SDS011;15314;49.248;6.968;2023-07-30T02:20:10;9.07;;;8.50;;
27977;SDS011;15314;49.248;6.968;2023-07-30T02:21:11;9.32;;;8.70;;
27977;SDS011;15314;49.248;6.968;2023-07-30T02:22:12;9.07;;;8.65;;
27977;SDS011;15314;49.248;6.968;2023-07-30T02:23:13;9.60;;;8.95;;
27977;SDS011;15314;49.248;6.968;2023-07-30T02:24:16;9.43;;;8.85;;
27977;SDS011;15314;49.248;6.968;2023-07-30T02:25:16;9.30;;;8.80;;
27977;SDS011;15314;49.248;6.968;2023-07-30T02:26:18;9.07;;;8.48;;
27977;SDS011;15314;49.248;6.968;2023-07-30T02:27:18;10.27;;;9.48;;
27977;SDS011;15314;49.248;6.968;2023-07-30T02:28:19;9.18;;;8.73;;
27977;SDS011;15314;49.248;6.968;2023-07-30T02:29:20;9.48;;;8.82;;
27977;SDS011;15314;49.248;6.968;2023-07-30T02:30:20;9.93;;;9.32;;
27977;SDS011;15314;49.248;6.968;2023-07-30T02:31:21;9.25;;;8.55;;
27977;SDS011;15314;49.248;6.968;2023-07-30T02:32:22;9.25;;;8.85;;
27977;SDS011;15314;49.248;6.968;2023-07-30T02:33:22;9.77;;;9.07;;
27977;SDS011;15314;49.248;6.968;2023-07-30T02:34:23;9.93;;;9.25;;
27977;SDS011;15314;49.248;6.968;2023-07-30T02:35:24;8.57;;;8.18;;
27977;SDS011;15314;49.248;6.968;2023-07-30T02:36:24;9.02;;;8.50;;
27977;SDS011;15314;49.248;6.968;2023-07-30T02:37:25;9.40;;;8.65;;
27977;SDS011;15314;49.248;6.968;2023-07-30T02:38:25;9.73;;;9.10;;
27977;SDS011;15314;49.248;6.968;2023-07-30T02:39:26;8.60;;;8.10;;
27977;SDS011;15314;49.248;6.968;2023-07-30T02:40:27;9.13;;;8.48;;
27977;SDS011;15314;49.248;6.968;2023-07-30T02:41:27;10.35;;;9.27;;
27977;SDS011;15314;49.248;6.968;2023-07-30T02:42:28;10.18;;;9.35;;
27977;SDS011;15314;49.248;6.968;2023-07-30T02:43:28;9.65;;;8.95;;
27977;SDS011;15314;49.248;6.968;2023-07-30T02:44:29;9.43;;;8.85;;
27977;SDS011;15314;49.248;6.968;2023-07-30T02:45:30;9.30;;;8.70;;
27977;SDS011;15314;49.248;6.968;2023-07-30T02:46:30;9.23;;;8.73;;
27977;SDS011;15314;49.248;6.968;2023-07-30T02:47:31;9.57;;;9.07;;
27977;SDS011;15314;49.248;6.968;2023-07-30T02:48:32;9.18;;;8.68;;
27977;SDS011;15314;49.248;6.968;2023-07-30T02:49:32;9.80;;;9.25;;
27977;SDS011;15314;49.248;6.968;2023-07-30T02:50:33;9.93;;;9.25;;
27977;SDS011;15314;49.248;6.968;2023-07-30T02:51:34;9.60;;;9.10;;
27977;SDS011;15314;49.248;6.968;2023-07-30T02:52:34;10.07;;;9.13;;
27977;SDS011;15314;49.248;6.968;2023-07-30T02:53:35;9.18;;;8.55;;
27977;SDS011;15314;49.248;6.968;2023-07-30T02:54:36;9.73;;;9.00;;
27977;SDS011;15314;49.248;6.968;2023-07-30T02:55:36;10.20;;;9.57;;
27977;SDS011;15314;49.248;6.968;2023-07-30T02:56:37;10.63;;;9.82;;
27977;SDS011;15314;49.248;6.968;2023-07-30T02:57:38;9.90;;;9.15;;
27977;SDS011;15314;49.248;6.968;2023-07-30T02:58:38;10.23;;;9.45;;
27977;SDS011;15314;49.248;6.968;2023-07-30T02:59:39;9.35;;;8.82;;
27977;SDS011;15314;49.248;6.968;2023-07-30T03:00:40;9.65;;;8.80;;
27977;SDS011;15314;49.248;6.968;2023-07-30T03:01:41;9.80;;;8.98;;
27977;SDS011;15314;49.248;6.968;2023-07-30T03:02:42;9.93;;;9.30;;
27977;SDS011;15314;49.248;6.968;2023-07-30T03:03:42;9.95;;;9.10;;
27977;SDS011;15314;49.248;6.968;2023-07-30T03:04:43;9.57;;;8.82;;
27977;SDS011;15314;49.248;6.968;2023-07-30T03:05:43;9.68;;;9.07;;
27977;SDS011;15314;49.248;6.968;2023-07-30T03:06:44;9.20;;;8.48;;
27977;SDS011;15314;49.248;6.968;2023-07-30T03:07:45;9.30;;;8.60;;
27977;SDS011;15314;49.248;6.968;2023-07-30T03:08:45;10.32;;;9.50;;
27977;SDS011;15314;49.248;6.968;2023-07-30T03:09:46;9.25;;;8.75;;
27977;SDS011;15314;49.248;6.968;2023-07-30T03:10:47;9.30;;;8.90;;
27977;SDS011;15314;49.248;6.968;2023-07-30T03:11:49;9.13;;;8.45;;
27977;SDS011;15314;49.248;6.968;2023-07-30T03:12:50;9.70;;;9.10;;
27977;SDS011;15314;49.248;6.968;2023-07-30T03:13:50;10.75;;;9.85;;
27977;SDS011;15314;49.248;6.968;2023-07-30T03:14:51;9.90;;;9.20;;
27977;SDS011;15314;49.248;6.968;2023-07-30T03:15:51;9.20;;;8.70;;
27977;SDS011;15314;49.248;6.968;2023-07-30T03:16:52;10.73;;;10.10;;
27977;SDS011;15314;49.248;6.968;2023-07-30T03:17:53;10.52;;;9.63;;
27977;SDS011;15314;49.248;6.968;2023-07-30T03:18:53;9.68;;;9.18;;
27977;SDS011;15314;49.248;6.968;2023-07-30T03:19:54;9.73;;;9.20;;
27977;SDS011;15314;49.248;6.968;2023-07-30T03:20:58;9.68;;;8.63;;
27977;SDS011;15314;49.248;6.968;2023-07-30T03:22:00;9.95;;;9.25;;
27977;SDS011;15314;49.248;6.968;2023-07-30T03:23:00;9.93;;;8.93;;
27977;SDS011;15314;49.248;6.968;2023-07-30T03:24:01;10.57;;;9.65;;
27977;SDS011;15314;49.248;6.968;2023-07-30T03:25:02;9.77;;;9.27;;
27977;SDS011;15314;49.248;6.968;2023-07-30T03:26:03;10.60;;;9.80;;
27977;SDS011;15314;49.248;6.968;2023-07-30T03:27:04;9.63;;;9.02;;
27977;SDS011;15314;49.248;6.968;2023-07-30T03:28:05;9.55;;;9.05;;
27977;SDS011;15314;49.248;6.968;2023-07-30T03:29:05;10.48;;;9.88;;
27977;SDS011;15314;49.248;6.968;2023-07-30T03:30:06;11.30;;;10.40;;
27977;SDS011;15314;49.248;6.968;2023-07-30T03:31:07;9.65;;;9.15;;
27977;SDS011;15314;49.248;6.968;2023-07-30T03:32:08;10.18;;;9.05;;
27977;SDS011;15314;49.248;6.968;2023-07-30T03:33:08;10.27;;;9.40;;
27977;SDS011;15314;49.248;6.968;2023-07-30T03:34:09;9.90;;;9.20;;
27977;SDS011;15314;49.248;6.968;2023-07-30T03:35:10;10.20;;;9.27;;
27977;SDS011;15314;49.248;6.968;2023-07-30T03:36:10;9.65;;;9.05;;
27977;SDS011;15314;49.248;6.968;2023-07-30T03:37:13;10.27;;;9.68;;
27977;SDS011;15314;49.248;6.968;2023-07-30T03:38:13;9.73;;;9.07;;
27977;SDS011;15314;49.248;6.968;2023-07-30T03:39:14;10.02;;;9.23;;
27977;SDS011;15314;49.248;6.968;2023-07-30T03:40:15;10.32;;;9.63;;
27977;SDS011;15314;49.248;6.968;2023-07-30T03:41:15;10.00;;;9.35;;
27977;SDS011;15314;49.248;6.968;2023-07-30T03:42:16;10.02;;;9.27;;
27977;SDS011;15314;49.248;6.968;2023-07-30T03:43:17;10.13;;;9.32;;
27977;SDS011;15314;49.248;6.968;2023-07-30T03:44:17;9.85;;;9.35;;
27977;SDS011;15314;49.248;6.968;2023-07-30T03:45:18;10.02;;;9.43;;
27977;SDS011;15314;49.248;6.968;2023-07-30T03:46:19;9.63;;;8.85;;
27977;SDS011;15314;49.248;6.968;2023-07-30T03:47:20;9.93;;;9.43;;
27977;SDS011;15314;49.248;6.968;2023-07-30T03:48:21;11.25;;;10.30;;
27977;SDS011;15314;49.248;6.968;2023-07-30T03:49:22;10.98;;;10.27;;
27977;SDS011;15314;49.248;6.968;2023-07-30T03:50:22;10.32;;;9.73;;
27977;SDS011;15314;49.248;6.968;2023-07-30T03:51:23;10.05;;;9.27;;
27977;SDS011;15314;49.248;6.968;2023-07-30T03:52:24;10.32;;;9.40;;
27977;SDS011;15314;49.248;6.968;2023-07-30T03:53:25;9.77;;;9.07;;
27977;SDS011;15314;49.248;6.968;2023-07-30T03:54:25;10.13;;;9.32;;
27977;SDS011;15314;49.248;6.968;2023-07-30T03:55:26;10.20;;;9.55;;
27977;SDS011;15314;49.248;6.968;2023-07-30T03:56:28;10.52;;;9.80;;
27977;SDS011;15314;49.248;6.968;2023-07-30T03:57:29;11.00;;;10.10;;
27977;SDS011;15314;49.248;6.968;2023-07-30T03:58:29;10.50;;;9.88;;
27977;SDS011;15314;49.248;6.968;2023-07-30T03:59:30;10.35;;;9.85;;
27977;SDS011;15314;49.248;6.968;2023-07-30T04:00:31;10.85;;;9.82;;
27977;SDS011;15314;49.248;6.968;2023-07-30T04:01:32;10.32;;;9.57;;
27977;SDS011;15314;49.248;6.968;2023-07-30T04:02:33;9.80;;;9.30;;
27977;SDS011;15314;49.248;6.968;2023-07-30T04:03:34;10.38;;;9.40;;
27977;SDS011;15314;49.248;6.968;2023-07-30T04:04:35;10.35;;;9.80;;
27977;SDS011;15314;49.248;6.968;2023-07-30T04:05:35;11.07;;;10.27;;
27977;SDS011;15314;49.248;6.968;2023-07-30T04:06:36;10.50;;;9.77;;
27977;SDS011;15314;49.248;6.968;2023-07-30T04:07:37;10.60;;;9.63;;
27977;SDS011;15314;49.248;6.968;2023-07-30T04:08:37;10.85;;;10.07;;
27977;SDS011;15314;49.248;6.968;2023-07-30T04:09:38;10.68;;;9.57;;
27977;SDS011;15314;49.248;6.968;2023-07-30T04:10:39;10.35;;;9.40;;
27977;SDS011;15314;49.248;6.968;2023-07-30T04:11:39;9.75;;;9.15;;
27977;SDS011;15314;49.248;6.968;2023-07-30T04:12:40;10.95;;;9.82;;
27977;SDS011;15314;49.248;6.968;2023-07-30T04:13:41;10.50;;;9.90;;
27977;SDS011;15314;49.248;6.968;2023-07-30T04:14:42;10.02;;;9.15;;
27977;SDS011;15314;49.248;6.968;2023-07-30T04:15:42;11.07;;;10.05;;
27977;SDS011;15314;49.248;6.968;2023-07-30T04:16:43;10.50;;;9.82;;
27977;SDS011;15314;49.248;6.968;2023-07-30T04:17:47;10.75;;;9.73;;
27977;SDS011;15314;49.248;6.968;2023-07-30T04:18:47;9.93;;;9.38;;
27977;SDS011;15314;49.248;6.968;2023-07-30T04:19:48;10.82;;;9.85;;
27977;SDS011;15314;49.248;6.968;2023-07-30T04:20:48;11.40;;;10.70;;
27977;SDS011;15314;49.248;6.968;2023-07-30T04:21:49;11.00;;;10.27;;
27977;SDS011;15314;49.248;6.968;2023-07-30T04:22:50;12.18;;;11.23;;
27977;SDS011;15314;49.248;6.968;2023-07-30T04:23:51;10.75;;;10.05;;
27977;SDS011;15314;49.248;6.968;2023-07-30T04:24:52;11.75;;;10.85;;
27977;SDS011;15314;49.248;6.968;2023-07-30T04:25:52;12.20;;;11.38;;
27977;SDS011;15314;49.248;6.968;2023-07-30T04:26:53;10.82;;;10.20;;
27977;SDS011;15314;49.248;6.968;2023-07-30T04:27:54;10.45;;;9.93;;
27977;SDS011;15314;49.248;6.968;2023-07-30T04:28:54;11.30;;;10.70;;
27977;SDS011;15314;49.248;6.968;2023-07-30T04:29:55;11.50;;;10.80;;
27977;SDS011;15314;49.248;6.968;2023-07-30T04:30:56;11.57;;;10.77;;
27977;SDS011;15314;49.248;6.968;2023-07-30T04:31:57;12.20;;;11.20;;
27977;SDS011;15314;49.248;6.968;2023-07-30T04:32:57;12.32;;;11.40;;
27977;SDS011;15314;49.248;6.968;2023-07-30T04:33:58;11.75;;;10.98;;
27977;SDS011;15314;49.248;6.968;2023-07-30T04:34:59;12.25;;;11.52;;
27977;SDS011;15314;49.248;6.968;2023-07-30T04:36:01;11.60;;;10.57;;
27977;SDS011;15314;49.248;6.968;2023-07-30T04:37:02;12.40;;;11.63;;
27977;SDS011;15314;49.248;6.968;2023-07-30T04:38:03;12.98;;;11.85;;
27977;SDS011;15314;49.248;6.968;2023-07-30T04:39:03;11.57;;;10.82;;
27977;SDS011;15314;49.248;6.968;2023-07-30T04:40:04;12.43;;;11.43;;
27977;SDS011;15314;49.248;6.968;2023-07-30T04:41:05;11.40;;;10.55;;
27977;SDS011;15314;49.248;6.968;2023-07-30T04:42:06;12.05;;;11.05;;
27977;SDS011;15314;49.248;6.968;2023-07-30T04:43:07;11.85;;;11.18;;
27977;SDS011;15314;49.248;6.968;2023-07-30T04:44:08;11.45;;;10.70;;
27977;SDS011;15314;49.248;6.968;2023-07-30T04:45:08;11.95;;;11.18;;
27977;SDS011;15314;49.248;6.968;2023-07-30T04:46:09;11.45;;;10.52;;
27977;SDS011;15314;49.248;6.968;2023-07-30T04:47:10;11.23;;;10.63;;
27977;SDS011;15314;49.248;6.968;2023-07-30T04:48:11;11.73;;;10.85;;
27977;SDS011;15314;49.248;6.968;2023-07-30T04:49:11;12.10;;;11.27;;
27977;SDS011;15314;49.248;6.968;2023-07-30T04:50:12;12.10;;;11.18;;
27977;SDS011;15314;49.248;6.968;2023-07-30T04:51:13;11.25;;;10.65;;
27977;SDS011;15314;49.248;6.968;2023-07-30T04:52:14;12.18;;;11.15;;
27977;SDS011;15314;49.248;6.968;2023-07-30T04:53:14;12.48;;;11.50;;
27977;SDS011;15314;49.248;6.968;2023-07-30T04:54:17;12.05;;;11.23;;
27977;SDS011;15314;49.248;6.968;2023-07-30T04:55:17;11.60;;;10.85;;
27977;SDS011;15314;49.248;6.968;2023-07-30T04:56:18;11.20;;;10.55;;
27977;SDS011;15314;49.248;6.968;2023-07-30T04:57:19;11.68;;;11.07;;
27977;SDS011;15314;49.248;6.968;2023-07-30T04:58:19;12.18;;;11.27;;
27977;SDS011;15314;49.248;6.968;2023-07-30T04:59:20;12.18;;;11.25;;
27977;SDS011;15314;49.248;6.968;2023-07-30T05:00:20;12.35;;;11.30;;
27977;SDS011;15314;49.248;6.968;2023-07-30T05:01:21;12.27;;;11.38;;
27977;SDS011;15314;49.248;6.968;2023-07-30T05:02:22;11.93;;;10.80;;
27977;SDS011;15314;49.248;6.968;2023-07-30T05:03:22;11.57;;;10.88;;
27977;SDS011;15314;49.248;6.968;2023-07-30T05:04:23;11.65;;;10.85;;
27977;SDS011;15314;49.248;6.968;2023-07-30T05:05:24;11.40;;;10.75;;
27977;SDS011;15314;49.248;6.968;2023-07-30T05:06:24;10.23;;;9.73;;
27977;SDS011;15314;49.248;6.968;2023-07-30T05:07:25;11.30;;;10.70;;
27977;SDS011;15314;49.248;6.968;2023-07-30T05:08:26;11.77;;;11.07;;
27977;SDS011;15314;49.248;6.968;2023-07-30T05:09:26;11.60;;;10.77;;
27977;SDS011;15314;49.248;6.968;2023-07-30T05:10:27;11.38;;;10.48;;
27977;SDS011;15314;49.248;6.968;2023-07-30T05:11:27;11.27;;;10.63;;
27977;SDS011;15314;49.248;6.968;2023-07-30T05:12:36;11.63;;;10.98;;
27977;SDS011;15314;49.248;6.968;2023-07-30T05:13:37;12.27;;;11.20;;
27977;SDS011;15314;49.248;6.968;2023-07-30T05:14:38;12.00;;;11.10;;
27977;SDS011;15314;49.248;6.968;2023-07-30T05:15:38;11.13;;;10.43;;
27977;SDS011;15314;49.248;6.968;2023-07-30T05:16:39;11.48;;;10.57;;
27977;SDS011;15314;49.248;6.968;2023-07-30T05:17:39;11.95;;;11.15;;
27977;SDS011;15314;49.248;6.968;2023-07-30T05:18:40;11.45;;;10.35;;
27977;SDS011;15314;49.248;6.968;2023-07-30T05:19:41;11.27;;;10.50;;
27977;SDS011;15314;49.248;6.968;2023-07-30T05:20:41;10.80;;;10.15;;
27977;SDS011;15314;49.248;6.968;2023-07-30T05:21:42;12.00;;;10.98;;
27977;SDS011;15314;49.248;6.968;2023-07-30T05:22:43;11.18;;;10.45;;
27977;SDS011;15314;49.248;6.968;2023-07-30T05:23:43;11.77;;;10.88;;
27977;SDS011;15314;49.248;6.968;2023-07-30T05:24:44;11.07;;;10.35;;
27977;SDS011;15314;49.248;6.968;2023-07-30T05:25:45;10.63;;;10.02;;
27977;SDS011;15314;49.248;6.968;2023-07-30T05:26:45;11.32;;;10.40;;
27977;SDS011;15314;49.248;6.968;2023-07-30T05:27:46;11.15;;;10.23;;
27977;SDS011;15314;49.248;6.968;2023-07-30T05:28:46;11.52;;;10.55;;
27977;SDS011;15314;49.248;6.968;2023-07-30T05:29:47;11.60;;;10.95;;
27977;SDS011;15314;49.248;6.968;2023-07-30T05:30:48;11.38;;;10.48;;
27977;SDS011;15314;49.248;6.968;2023-07-30T05:31:49;10.73;;;10.05;;
27977;SDS011;15314;49.248;6.968;2023-07-30T05:32:49;11.68;;;10.98;;
27977;SDS011;15314;49.248;6.968;2023-07-30T05:33:50;11.45;;;10.75;;
27977;SDS011;15314;49.248;6.968;2023-07-30T05:34:50;12.23;;;11.18;;
27977;SDS011;15314;49.248;6.968;2023-07-30T05:35:51;10.95;;;10.30;;
27977;SDS011;15314;49.248;6.968;2023-07-30T05:36:52;10.30;;;9.48;;
27977;SDS011;15314;49.248;6.968;2023-07-30T05:37:52;11.15;;;10.45;;
27977;SDS011;15314;49.248;6.968;2023-07-30T05:38:53;11.50;;;10.45;;
27977;SDS011;15314;49.248;6.968;2023-07-30T05:39:53;10.60;;;9.98;;
27977;SDS011;15314;49.248;6.968;2023-07-30T05:40:54;10.60;;;9.93;;
27977;SDS011;15314;49.248;6.968;2023-07-30T05:41:55;10.20;;;9.50;;
27977;SDS011;15314;49.248;6.968;2023-07-30T05:42:55;10.18;;;9.55;;
27977;SDS011;15314;49.248;6.968;2023-07-30T05:43:56;10.18;;;9.57;;
27977;SDS011;15314;49.248;6.968;2023-07-30T05:44:57;10.00;;;9.40;;
27977;SDS011;15314;49.248;6.968;2023-07-30T05:45:57;10.38;;;9.38;;
27977;SDS011;15314;49.248;6.968;2023-07-30T05:46:58;10.82;;;9.90;;
27977;SDS011;15314;49.248;6.968;2023-07-30T05:47:58;10.40;;;9.80;;
27977;SDS011;15314;49.248;6.968;2023-07-30T05:48:59;9.50;;;8.75;;
27977;SDS011;15314;49.248;6.968;2023-07-30T05:50:01;9.18;;;8.55;;
27977;SDS011;15314;49.248;6.968;2023-07-30T05:51:02;9.48;;;8.57;;
27977;SDS011;15314;49.248;6.968;2023-07-30T05:52:03;9.30;;;8.60;;
27977;SDS011;15314;49.248;6.968;2023-07-30T05:53:04;9.98;;;9.25;;
27977;SDS011;15314;49.248;6.968;2023-07-30T05:54:04;9.60;;;9.00;;
27977;SDS011;15314;49.248;6.968;2023-07-30T05:55:05;9.43;;;8.82;;
27977;SDS011;15314;49.248;6.968;2023-07-30T05:56:06;9.68;;;9.10;;
27977;SDS011;15314;49.248;6.968;2023-07-30T05:57:07;8.95;;;8.45;;
27977;SDS011;15314;49.248;6.968;2023-07-30T05:58:07;9.32;;;8.70;;
27977;SDS011;15314;49.248;6.968;2023-07-30T05:59:08;10.20;;;9.48;;
27977;SDS011;15314;49.248;6.968;2023-07-30T06:00:09;10.68;;;9.63;;
27977;SDS011;15314;49.248;6.968;2023-07-30T06:01:10;10.25;;;9.50;;
27977;SDS011;15314;49.248;6.968;2023-07-30T06:02:11;10.45;;;9.57;;
27977;SDS011;15314;49.248;6.968;2023-07-30T06:03:12;9.48;;;8.98;;
27977;SDS011;15314;49.248;6.968;2023-07-30T06:04:12;10.32;;;9.73;;